createdAt,value
2018-04-11T00:00:31.530Z,100
2018-04-11T00:10:45.396Z,100
2018-04-11T00:21:00.920Z,100
2018-04-11T00:31:15.070Z,100
2018-04-11T00:41:30.085Z,100
2018-04-11T00:51:44.821Z,100
2018-04-11T01:01:59.584Z,100
2018-04-11T01:12:15.046Z,100
2018-04-11T01:22:30.050Z,100
2018-04-11T01:32:45.565Z,100
2018-04-11T01:42:59.737Z,100
2018-04-11T01:53:13.827Z,100
2018-04-11T02:03:28.460Z,100
2018-04-11T02:13:44.007Z,100
2018-04-11T02:23:58.237Z,100
2018-04-11T02:34:12.802Z,100
2018-04-11T02:44:27.791Z,100
2018-04-11T02:54:41.732Z,100
2018-04-11T03:04:57.027Z,100
2018-04-11T03:15:11.521Z,100
2018-04-11T03:25:26.862Z,100
2018-04-11T03:35:41.479Z,100
2018-04-11T03:45:56.281Z,100
2018-04-11T03:56:10.571Z,100
2018-04-11T04:06:26.186Z,100
2018-04-11T04:16:41.334Z,100
2018-04-11T04:26:57.031Z,100
2018-04-11T04:37:11.116Z,100
2018-04-11T04:47:25.013Z,100
2018-04-11T04:57:39.701Z,100
2018-04-11T05:07:53.785Z,100
2018-04-11T05:18:08.807Z,100
2018-04-11T05:28:23.266Z,100
2018-04-11T05:38:38.537Z,100
2018-04-11T05:48:53.746Z,100
2018-04-11T05:59:09.191Z,100
2018-04-11T06:09:24.311Z,100
2018-04-11T06:19:39.951Z,100
2018-04-11T06:29:55.011Z,100
2018-04-11T06:40:09.503Z,100
2018-04-11T06:50:24.695Z,100
2018-04-11T07:00:38.483Z,100
2018-04-11T07:10:53.994Z,100
2018-04-11T07:21:08.699Z,100
2018-04-11T07:31:23.638Z,100
2018-04-11T07:41:38.592Z,100
2018-04-11T07:51:53.261Z,100
2018-04-11T08:02:09.067Z,100
2018-04-11T08:12:23.433Z,99.2
2018-04-11T08:22:38.740Z,97.6
2018-04-11T08:32:54.188Z,96.2
2018-04-11T08:43:08.061Z,94.7
2018-04-11T08:53:23.089Z,93.2
2018-04-11T09:03:38.704Z,93.1
2018-04-11T09:13:52.898Z,90.8
2018-04-11T09:24:08.668Z,90.1
2018-04-11T09:34:23.891Z,88.9
2018-04-11T09:44:38.258Z,87.4
2018-04-11T09:54:52.180Z,86.1
2018-04-11T10:05:07.513Z,85.8
2018-04-11T10:15:23.212Z,85.6
2018-04-11T10:25:38.080Z,84.9
2018-04-11T10:35:52.390Z,84.5
2018-04-11T10:46:06.334Z,85
2018-04-11T10:56:22.134Z,86.6
2018-04-11T11:06:37.197Z,86
2018-04-11T11:16:51.657Z,86.1
2018-04-11T11:27:06.936Z,86
2018-04-11T11:37:20.943Z,86.2
2018-04-11T11:47:35.062Z,84.1
2018-04-11T11:57:50.512Z,85
2018-04-11T12:08:05.785Z,86
2018-04-11T12:18:21.731Z,85.3
2018-04-11T12:28:36.959Z,86.2
2018-04-11T12:38:52.587Z,88.3
2018-04-11T12:49:06.749Z,88.6
2018-04-11T12:59:21.038Z,87.6
2018-04-11T13:09:35.353Z,85.5
2018-04-11T13:19:50.361Z,86.5
2018-04-11T13:30:04.879Z,85.7
2018-04-11T13:40:19.001Z,85.2
2018-04-11T13:50:34.108Z,85.2
2018-04-11T14:00:48.143Z,85.3
2018-04-11T14:11:03.687Z,84.7
2018-04-11T14:21:19.331Z,87.1
2018-04-11T14:31:34.721Z,88.5
2018-04-11T14:41:50.484Z,88.6
2018-04-11T14:52:04.601Z,88.9
2018-04-11T15:02:20.201Z,88.2
2018-04-11T15:12:34.827Z,87.4
2018-04-11T15:22:48.776Z,88.5
2018-04-11T15:33:03.904Z,88.5
2018-04-11T15:43:19.594Z,90.1
2018-04-11T15:53:33.975Z,90.8
2018-04-11T16:03:47.828Z,92.6
2018-04-11T16:14:02.405Z,93.6
2018-04-11T16:24:17.415Z,94.4
2018-04-11T16:34:32.748Z,95.2
2018-04-11T16:44:46.981Z,96.2
2018-04-11T16:55:00.951Z,98
2018-04-11T17:05:16.383Z,99.6
2018-04-11T17:15:31.710Z,100
2018-04-11T17:25:46.524Z,100
2018-04-11T17:36:01.374Z,100
2018-04-11T17:46:16.863Z,100
2018-04-11T17:56:31.608Z,100
2018-04-11T18:06:46.561Z,100
2018-04-11T18:17:02.019Z,100
2018-04-11T18:27:17.306Z,100
2018-04-11T18:37:32.761Z,100
2018-04-11T18:47:47.515Z,100
2018-04-11T18:58:01.444Z,100
2018-04-11T19:08:16.184Z,100
2018-04-11T19:18:30.054Z,100
2018-04-11T19:28:44.257Z,100
2018-04-11T19:38:59.604Z,100
2018-04-11T19:49:15.298Z,100
2018-04-11T19:59:29.929Z,100
2018-04-11T20:09:44.048Z,100
2018-04-11T20:19:58.486Z,100
2018-04-11T20:30:13.217Z,100
2018-04-11T20:40:27.056Z,100
2018-04-11T20:50:40.824Z,100
2018-04-11T21:00:54.932Z,100
2018-04-11T21:11:09.452Z,100
2018-04-11T21:21:23.386Z,100
2018-04-11T21:31:37.253Z,100
2018-04-11T21:41:51.609Z,100
2018-04-11T21:52:06.163Z,100
2018-04-11T22:02:20.003Z,100
2018-04-11T22:12:33.828Z,100
2018-04-11T22:22:49.032Z,100
2018-04-11T22:33:03.961Z,100
2018-04-11T22:43:18.999Z,100
2018-04-11T22:53:34.384Z,100
2018-04-11T23:03:49.971Z,100
2018-04-11T23:14:03.829Z,100
2018-04-11T23:24:18.232Z,100
2018-04-11T23:34:33.845Z,100
2018-04-11T23:44:48.834Z,100
2018-04-11T23:55:03.071Z,100
